createdAt,value
2019-02-17T05:03:43.051Z,92.266846
2019-02-17T05:07:11.013Z,92.370605
2019-02-17T05:10:38.947Z,92.016602
2019-02-17T05:14:06.842Z,91.912842
2019-02-17T05:17:34.768Z,92.016602
2019-02-17T05:21:02.667Z,92.327881
2019-02-17T05:24:30.732Z,92.120361
2019-02-17T05:27:58.738Z,92.120361
2019-02-17T05:31:27.640Z,91.912842
2019-02-17T05:34:55.608Z,91.601562
2019-02-17T05:38:24.476Z,91.601562
2019-02-17T05:41:52.399Z,91.809082
2019-02-17T05:45:20.573Z,92.120361
2019-02-17T05:48:48.512Z,92.016602
2019-02-17T05:52:16.500Z,91.912842
2019-02-17T05:55:44.445Z,92.016602
2019-02-17T05:59:12.389Z,92.120361
2019-02-17T06:02:40.372Z,92.120361
2019-02-17T06:06:08.242Z,92.016602
2019-02-17T06:09:37.203Z,92.016602
2019-02-17T06:13:05.539Z,91.912842
2019-02-17T06:16:33.466Z,92.016602
2019-02-17T06:20:02.331Z,91.766357
2019-02-17T06:23:30.254Z,91.662598
2019-02-17T06:26:59.183Z,91.558838
2019-02-17T06:30:27.145Z,91.558838
2019-02-17T06:33:55.100Z,91.662598
2019-02-17T06:37:22.964Z,91.558838
2019-02-17T06:40:50.900Z,91.662598
2019-02-17T06:44:18.893Z,91.461182
2019-02-17T06:47:46.792Z,91.461182
2019-02-17T06:51:14.818Z,91.046143
2019-02-17T06:54:42.686Z,90.899658
2019-02-17T06:58:10.588Z,90.899658
2019-02-17T07:01:38.537Z,90.594482
2019-02-17T07:05:06.495Z,90.386963
2019-02-17T07:08:34.452Z,90.032959
2019-02-17T07:12:02.484Z,89.935303
2019-02-17T07:15:30.312Z,89.624023
2019-02-17T07:18:58.282Z,89.477539
2019-02-17T07:22:26.296Z,89.172363
2019-02-17T07:25:54.231Z,89.068604
2019-02-17T07:29:22.226Z,89.068604
2019-02-17T07:32:51.168Z,89.068604
2019-02-17T07:36:19.089Z,88.409424
2019-02-17T07:39:48.042Z,88.513184
2019-02-17T07:43:16.003Z,88.201904
2019-02-17T07:46:43.901Z,88.104248
2019-02-17T07:50:11.841Z,88.000488
2019-02-17T07:53:39.894Z,87.896729
2019-02-17T07:57:07.857Z,87.792969
2019-02-17T08:00:35.877Z,87.585449
2019-02-17T08:04:03.757Z,87.585449
2019-02-17T08:07:31.757Z,87.854004
2019-02-17T08:11:03.880Z,87.957764
2019-02-17T08:14:30.758Z,87.750244
2019-02-17T08:17:58.698Z,87.750244
2019-02-17T08:21:27.658Z,87.652588
2019-02-17T08:24:55.663Z,87.750244
2019-02-17T08:28:24.674Z,86.932373
2019-02-17T08:31:56.038Z,87.341309
2019-02-17T08:35:23.861Z,87.341309
2019-02-17T08:38:51.842Z,87.445068
2019-02-17T08:42:20.906Z,87.445068
2019-02-17T08:45:49.032Z,87.506104
2019-02-17T08:49:17.009Z,87.298584
2019-02-17T08:52:44.937Z,87.200928
2019-02-17T08:56:12.834Z,87.158203
2019-02-17T08:59:41.759Z,86.950684
2019-02-17T09:03:09.719Z,86.846924
2019-02-17T09:06:37.614Z,86.749268
2019-02-17T09:10:05.597Z,86.541748
2019-02-17T09:13:33.492Z,86.645508
2019-02-17T09:17:02.391Z,86.602783
2019-02-17T09:20:30.267Z,86.401367
2019-02-17T09:23:58.170Z,86.401367
2019-02-17T09:27:27.091Z,86.706543
2019-02-17T09:30:54.996Z,86.602783
2019-02-17T09:34:22.881Z,86.499023
2019-02-17T09:37:50.878Z,86.706543
2019-02-17T09:41:18.779Z,86.401367
2019-02-17T09:44:46.706Z,86.566162
2019-02-17T09:48:14.678Z,86.254883
2019-02-17T09:51:42.599Z,85.949707
2019-02-17T09:55:11.504Z,86.053467
2019-02-17T09:58:39.484Z,85.638428
2019-02-17T10:02:07.392Z,85.540771
2019-02-17T10:05:35.277Z,85.229492
2019-02-17T10:09:03.210Z,85.742188
2019-02-17T10:12:31.125Z,85.437012
2019-02-17T10:16:00.060Z,85.437012
2019-02-17T10:19:27.982Z,85.949707
2019-02-17T10:22:55.890Z,85.845947
2019-02-17T10:26:25.741Z,85.540771
2019-02-17T10:29:53.661Z,85.638428
2019-02-17T10:33:21.595Z,85.028076
2019-02-17T10:36:49.560Z,85.845947
2019-02-17T10:40:17.461Z,85.296631
2019-02-17T10:43:45.461Z,85.229492
2019-02-17T10:47:13.383Z,84.924316
2019-02-17T10:50:41.268Z,85.394287
2019-02-17T10:54:09.180Z,85.394287
2019-02-17T10:57:37.096Z,84.680176
2019-02-17T11:01:05.159Z,85.394287
2019-02-17T11:04:33.063Z,84.881592
2019-02-17T11:08:02.774Z,84.985352
2019-02-17T11:11:30.657Z,84.881592
2019-02-17T11:14:58.572Z,85.089111
2019-02-17T11:18:26.480Z,84.741211
2019-02-17T11:21:54.391Z,84.741211
2019-02-17T11:25:22.306Z,84.741211
2019-02-17T11:28:50.204Z,84.332275
2019-02-17T11:32:18.101Z,84.637451
2019-02-17T11:35:46.025Z,84.844971
2019-02-17T11:39:13.936Z,84.802246
2019-02-17T11:42:41.813Z,84.802246
2019-02-17T11:46:09.728Z,84.088135
2019-02-17T11:49:37.675Z,84.191895
2019-02-17T11:53:05.608Z,83.984375
2019-02-17T11:56:33.473Z,83.636475
2019-02-17T12:00:03.355Z,83.843994
2019-02-17T12:03:31.241Z,83.947754
2019-02-17T12:07:00.378Z,83.636475
2019-02-17T12:10:28.023Z,84.25293
2019-02-17T12:13:57.939Z,83.703613
2019-02-17T12:17:25.862Z,83.703613
2019-02-17T12:20:55.661Z,84.04541
2019-02-17T12:24:23.843Z,83.843994
2019-02-17T12:27:52.164Z,83.435059
2019-02-17T12:31:20.317Z,83.636475
2019-02-17T12:34:48.367Z,83.496094
2019-02-17T12:38:16.371Z,83.087158
2019-02-17T12:41:45.414Z,84.216309
2019-02-17T12:45:16.140Z,83.496094
2019-02-17T12:48:43.506Z,83.087158
2019-02-17T12:52:11.472Z,83.087158
2019-02-17T12:55:39.562Z,83.392334
2019-02-17T12:59:08.527Z,82.781982
2019-02-17T13:02:36.576Z,82.781982
2019-02-17T13:06:04.566Z,82.983398
2019-02-17T13:09:32.488Z,82.745361
2019-02-17T13:13:01.492Z,82.641602
2019-02-17T13:16:30.434Z,83.251953
2019-02-17T13:19:58.608Z,83.355713
2019-02-17T13:23:26.647Z,83.251953
2019-02-17T13:26:55.676Z,82.745361
2019-02-17T13:30:23.683Z,83.154297
2019-02-17T13:33:51.651Z,83.050537
2019-02-17T13:37:19.634Z,83.154297
2019-02-17T13:40:47.660Z,83.563232
2019-02-17T13:44:15.636Z,83.154297
2019-02-17T13:47:43.600Z,82.946777
2019-02-17T13:51:11.606Z,82.946777
2019-02-17T13:54:39.606Z,83.563232
2019-02-17T13:58:07.626Z,83.563232
2019-02-17T14:01:35.675Z,83.563232
2019-02-17T14:05:04.506Z,83.660889
2019-02-17T14:08:32.544Z,83.459473
2019-02-17T14:12:00.561Z,83.459473
2019-02-17T14:15:28.560Z,83.355713
2019-02-17T14:18:56.510Z,83.563232
2019-02-17T14:22:24.385Z,83.459473
2019-02-17T14:25:52.297Z,83.050537
2019-02-17T14:29:20.185Z,82.946777
2019-02-17T14:32:48.156Z,83.355713
2019-02-17T14:36:16.046Z,83.190918
2019-02-17T14:39:43.946Z,82.983398
2019-02-17T14:43:11.877Z,83.050537
2019-02-17T14:46:40.111Z,83.868408
2019-02-17T14:50:08.295Z,83.050537
2019-02-17T14:53:36.249Z,83.459473
2019-02-17T14:57:04.273Z,83.294678
2019-02-17T15:00:32.857Z,84.112549
2019-02-17T15:04:08.255Z,82.983398
2019-02-17T15:07:32.903Z,83.599854
2019-02-17T15:11:00.891Z,82.885742
2019-02-17T15:14:28.891Z,81.964111
2019-02-17T15:17:56.834Z,82.678223
2019-02-17T15:21:24.874Z,81.555176
2019-02-17T15:24:53.436Z,82.781982
2019-02-17T15:28:21.678Z,81.756592
2019-02-17T15:31:50.798Z,81.756592
2019-02-17T15:35:18.879Z,82.678223
2019-02-17T15:38:48.000Z,82.818604
2019-02-17T15:42:15.819Z,81.591797
2019-02-17T15:45:43.927Z,83.331299
2019-02-17T15:49:11.817Z,83.843994
2019-02-17T15:52:39.772Z,83.880615
2019-02-17T15:56:07.729Z,84.393311
2019-02-17T15:59:35.674Z,84.802246
2019-02-17T16:03:03.777Z,85.662842
2019-02-17T16:06:31.726Z,86.419678
2019-02-17T16:09:59.747Z,87.176514
2019-02-17T16:13:29.660Z,88.348389
2019-02-17T16:16:59.905Z,89.007568
2019-02-17T16:20:28.557Z,90.2771
2019-02-17T16:23:57.442Z,90.936279
2019-02-17T16:27:25.342Z,91.802979
2019-02-17T16:30:53.317Z,92.626953
2019-02-17T16:34:21.476Z,93.139648
2019-02-17T16:37:49.480Z,92.932129
2019-02-17T16:41:17.441Z,92.419434
2019-02-17T16:44:45.515Z,92.462158
2019-02-17T16:48:14.703Z,93.225098
2019-02-17T16:51:43.059Z,93.579102
2019-02-17T16:55:11.105Z,93.884277
2019-02-17T16:58:39.047Z,94.342041
2019-02-17T17:02:06.957Z,95.001221
2019-02-17T17:05:34.847Z,95.623779
2019-02-17T17:09:03.757Z,95.928955
2019-02-17T17:12:31.660Z,96.282959
2019-02-17T17:16:00.520Z,96.386719
2019-02-17T17:19:28.434Z,96.740723
2019-02-17T17:22:56.354Z,96.948242
2019-02-17T17:26:24.266Z,97.259521
2019-02-17T17:29:52.160Z,97.467041
2019-02-17T17:33:20.085Z,97.406006
2019-02-17T17:36:48.099Z,97.924805
2019-02-17T17:40:16.900Z,98.498535
2019-02-17T17:43:46.171Z,98.498535
2019-02-17T17:47:14.202Z,98.291016
2019-02-17T17:50:42.338Z,98.083496
2019-02-17T17:54:10.383Z,98.187256
2019-02-17T17:57:39.438Z,98.4375
2019-02-17T18:01:08.452Z,98.22998
2019-02-17T18:04:36.405Z,98.071289
2019-02-17T18:08:04.451Z,98.687744
2019-02-17T18:11:32.487Z,99.060059
2019-02-17T18:15:02.605Z,99.261475
2019-02-17T18:18:31.496Z,98.852539
2019-02-17T18:22:00.085Z,98.54126
2019-02-17T18:25:30.691Z,98.4375
2019-02-17T18:28:58.817Z,98.791504
2019-02-17T18:32:26.763Z,98.895264
2019-02-17T18:35:54.912Z,98.895264
2019-02-17T18:39:22.895Z,98.895264
2019-02-17T18:42:51.056Z,98.999023
2019-02-17T18:46:19.032Z,98.895264
2019-02-17T18:49:48.020Z,99.206543
2019-02-17T18:53:16.240Z,99.414062
2019-02-17T18:56:45.275Z,99.621582
2019-02-17T19:00:13.369Z,99.206543
2019-02-17T19:03:41.322Z,98.895264
2019-02-17T19:07:09.383Z,98.895264
2019-02-17T19:10:37.485Z,98.944092
2019-02-17T19:14:05.920Z,99.249268
2019-02-17T19:17:33.944Z,99.664307
2019-02-17T19:21:02.711Z,99.560547
2019-02-17T19:24:30.719Z,99.768066
2019-02-17T19:27:58.727Z,99.975586
2019-02-17T19:31:27.786Z,99.871826
2019-02-17T19:34:56.696Z,99.871826
2019-02-17T19:38:25.702Z,99.975586
2019-02-17T19:41:53.636Z,99.975586
2019-02-17T19:45:21.695Z,99.993896
2019-02-17T19:48:49.654Z,99.719238
2019-02-17T19:52:17.592Z,99.621582
2019-02-17T19:55:45.726Z,99.621582
2019-02-17T19:59:14.833Z,99.310303
2019-02-17T20:02:43.883Z,99.206543
2019-02-17T20:06:12.749Z,99.102783
2019-02-17T20:09:41.818Z,99.151611
2019-02-17T20:13:09.908Z,99.456787
2019-02-17T20:16:38.053Z,99.621582
2019-02-17T20:20:06.153Z,99.621582
2019-02-17T20:23:34.192Z,99.414062
2019-02-17T20:27:02.275Z,99.206543
2019-02-17T20:30:30.251Z,99.060059
2019-02-17T20:33:58.369Z,98.791504
2019-02-17T20:37:26.349Z,98.687744
2019-02-17T20:40:54.464Z,98.791504
2019-02-17T20:44:23.422Z,98.895264
2019-02-17T20:47:51.321Z,98.687744
2019-02-17T20:51:19.261Z,98.687744
2019-02-17T20:54:47.204Z,98.791504
2019-02-17T20:58:15.058Z,98.687744
2019-02-17T21:01:43.960Z,98.748779
2019-02-17T21:05:11.861Z,98.54126
2019-02-17T21:08:39.796Z,98.022461
2019-02-17T21:12:07.770Z,98.022461
2019-02-17T21:15:35.664Z,98.022461
2019-02-17T21:19:03.563Z,98.022461
2019-02-17T21:22:31.463Z,98.4375
2019-02-17T21:25:59.366Z,98.4375
2019-02-17T21:29:27.272Z,97.924805
2019-02-17T21:32:55.170Z,97.821045
2019-02-17T21:36:24.066Z,97.821045
2019-02-17T21:39:51.938Z,97.717285
2019-02-17T21:43:19.853Z,98.22998
2019-02-17T21:46:47.772Z,98.175049
2019-02-17T21:50:15.700Z,98.175049
2019-02-17T21:53:43.576Z,98.382568
2019-02-17T21:57:11.472Z,98.583984
2019-02-17T22:00:39.398Z,98.382568
2019-02-17T22:04:07.268Z,98.632812
2019-02-17T22:07:36.150Z,99.047852
2019-02-17T22:11:04.051Z,98.840332
2019-02-17T22:14:31.947Z,98.736572
2019-02-17T22:17:59.847Z,99.249268
2019-02-17T22:21:27.743Z,99.194336
2019-02-17T22:24:55.679Z,99.194336
2019-02-17T22:28:23.583Z,99.243164
2019-02-17T22:31:51.486Z,99.54834
2019-02-17T22:35:19.388Z,99.963379
2019-02-17T22:38:47.275Z,99.993896
2019-02-17T22:42:15.347Z,99.993896
2019-02-17T22:45:43.253Z,99.993896
2019-02-17T22:49:11.209Z,99.993896
2019-02-17T22:52:39.093Z,99.993896
2019-02-17T22:56:06.995Z,99.993896
2019-02-17T22:59:34.888Z,99.993896
